sensor_id;sensor_type;location;lat;lon;timestamp;temperature;humidity
33825;DHT22;20127;48.962;8.342;2023-04-16T00:01:12;9.40;99.90
33825;DHT22;20127;48.962;8.342;2023-04-16T00:04:13;9.40;99.90
33825;DHT22;20127;48.962;8.342;2023-04-16T00:07:17;9.40;99.90
33825;DHT22;20127;48.962;8.342;2023-04-16T00:10:19;9.40;99.90
33825;DHT22;20127;48.962;8.342;2023-04-16T00:13:20;9.40;99.90
33825;DHT22;20127;48.962;8.342;2023-04-16T00:16:22;9.30;99.90
33825;DHT22;20127;48.962;8.342;2023-04-16T00:19:24;9.30;99.90
33825;DHT22;20127;48.962;8.342;2023-04-16T00:22:27;9.30;99.90
33825;DHT22;20127;48.962;8.342;2023-04-16T00:25:29;9.20;99.90
33825;DHT22;20127;48.962;8.342;2023-04-16T00:28:30;9.20;99.90
33825;DHT22;20127;48.962;8.342;2023-04-16T00:31:32;9.20;99.90
33825;DHT22;20127;48.962;8.342;2023-04-16T00:34:34;9.20;99.90
33825;DHT22;20127;48.962;8.342;2023-04-16T00:37:37;9.30;99.90
33825;DHT22;20127;48.962;8.342;2023-04-16T00:40:39;9.30;99.90
33825;DHT22;20127;48.962;8.342;2023-04-16T00:43:41;9.30;99.90
33825;DHT22;20127;48.962;8.342;2023-04-16T00:46:43;9.30;99.90
33825;DHT22;20127;48.962;8.342;2023-04-16T00:49:45;9.30;99.90
33825;DHT22;20127;48.962;8.342;2023-04-16T00:52:48;9.30;99.90
33825;DHT22;20127;48.962;8.342;2023-04-16T00:55:50;9.30;99.90
33825;DHT22;20127;48.962;8.342;2023-04-16T00:58:53;9.30;99.90
33825;DHT22;20127;48.962;8.342;2023-04-16T01:01:55;9.30;99.90
33825;DHT22;20127;48.962;8.342;2023-04-16T01:04:57;9.30;99.90
33825;DHT22;20127;48.962;8.342;2023-04-16T01:08:00;9.30;99.90
33825;DHT22;20127;48.962;8.342;2023-04-16T01:11:02;9.30;99.90
33825;DHT22;20127;48.962;8.342;2023-04-16T01:14:04;9.30;99.90
33825;DHT22;20127;48.962;8.342;2023-04-16T01:17:06;9.30;99.90
33825;DHT22;20127;48.962;8.342;2023-04-16T01:20:08;9.30;99.90
33825;DHT22;20127;48.962;8.342;2023-04-16T01:23:12;9.30;99.90
33825;DHT22;20127;48.962;8.342;2023-04-16T01:26:14;9.30;99.90
33825;DHT22;20127;48.962;8.342;2023-04-16T01:29:15;9.30;99.90
33825;DHT22;20127;48.962;8.342;2023-04-16T01:32:17;9.30;99.90
33825;DHT22;20127;48.962;8.342;2023-04-16T01:35:19;9.30;99.90
33825;DHT22;20127;48.962;8.342;2023-04-16T01:38:22;9.30;99.90
33825;DHT22;20127;48.962;8.342;2023-04-16T01:41:23;9.30;99.90
33825;DHT22;20127;48.962;8.342;2023-04-16T01:44:25;9.40;99.90
33825;DHT22;20127;48.962;8.342;2023-04-16T01:47:27;9.40;99.90
33825;DHT22;20127;48.962;8.342;2023-04-16T01:50:29;9.40;99.90
33825;DHT22;20127;48.962;8.342;2023-04-16T01:53:32;9.40;99.90
33825;DHT22;20127;48.962;8.342;2023-04-16T01:56:34;9.40;99.90
33825;DHT22;20127;48.962;8.342;2023-04-16T01:59:35;9.40;99.90
33825;DHT22;20127;48.962;8.342;2023-04-16T02:02:37;9.40;99.90
33825;DHT22;20127;48.962;8.342;2023-04-16T02:05:39;9.30;99.90
33825;DHT22;20127;48.962;8.342;2023-04-16T02:08:42;9.30;99.90
33825;DHT22;20127;48.962;8.342;2023-04-16T02:11:44;9.30;99.90
33825;DHT22;20127;48.962;8.342;2023-04-16T02:14:46;9.30;99.90
33825;DHT22;20127;48.962;8.342;2023-04-16T02:17:47;9.30;99.90
33825;DHT22;20127;48.962;8.342;2023-04-16T02:20:57;9.30;99.90
33825;DHT22;20127;48.962;8.342;2023-04-16T02:24:00;9.20;99.90
33825;DHT22;20127;48.962;8.342;2023-04-16T02:27:02;9.20;99.90
33825;DHT22;20127;48.962;8.342;2023-04-16T02:30:04;9.20;99.90
33825;DHT22;20127;48.962;8.342;2023-04-16T02:33:08;9.20;99.90
33825;DHT22;20127;48.962;8.342;2023-04-16T02:36:10;9.20;99.90
33825;DHT22;20127;48.962;8.342;2023-04-16T02:39:13;9.20;99.90
33825;DHT22;20127;48.962;8.342;2023-04-16T02:42:15;9.20;99.90
33825;DHT22;20127;48.962;8.342;2023-04-16T02:45:17;9.20;99.90
33825;DHT22;20127;48.962;8.342;2023-04-16T02:48:18;9.20;99.90
33825;DHT22;20127;48.962;8.342;2023-04-16T02:51:20;9.20;99.90
33825;DHT22;20127;48.962;8.342;2023-04-16T02:54:23;9.20;99.90
33825;DHT22;20127;48.962;8.342;2023-04-16T02:57:25;9.20;99.90
33825;DHT22;20127;48.962;8.342;2023-04-16T03:00:26;9.20;99.90
33825;DHT22;20127;48.962;8.342;2023-04-16T03:03:28;9.20;99.90
33825;DHT22;20127;48.962;8.342;2023-04-16T03:06:30;9.10;99.90
33825;DHT22;20127;48.962;8.342;2023-04-16T03:09:33;9.10;99.90
33825;DHT22;20127;48.962;8.342;2023-04-16T03:12:35;9.10;99.90
33825;DHT22;20127;48.962;8.342;2023-04-16T03:15:36;9.10;99.90
33825;DHT22;20127;48.962;8.342;2023-04-16T03:18:38;9.10;99.90
33825;DHT22;20127;48.962;8.342;2023-04-16T03:21:40;9.10;99.90
33825;DHT22;20127;48.962;8.342;2023-04-16T03:24:43;9.10;99.90
33825;DHT22;20127;48.962;8.342;2023-04-16T03:27:45;9.20;99.90
33825;DHT22;20127;48.962;8.342;2023-04-16T03:30:49;9.20;99.90
33825;DHT22;20127;48.962;8.342;2023-04-16T03:33:52;9.20;99.90
33825;DHT22;20127;48.962;8.342;2023-04-16T03:36:53;9.20;99.90
33825;DHT22;20127;48.962;8.342;2023-04-16T03:39:57;9.20;99.90
33825;DHT22;20127;48.962;8.342;2023-04-16T03:42:58;9.20;99.90
33825;DHT22;20127;48.962;8.342;2023-04-16T03:46:00;9.20;99.90
33825;DHT22;20127;48.962;8.342;2023-04-16T03:49:02;9.30;99.90
33825;DHT22;20127;48.962;8.342;2023-04-16T03:52:03;9.30;99.90
33825;DHT22;20127;48.962;8.342;2023-04-16T03:55:07;9.30;99.90
33825;DHT22;20127;48.962;8.342;2023-04-16T03:58:09;9.30;99.90
33825;DHT22;20127;48.962;8.342;2023-04-16T04:01:11;9.30;99.90
33825;DHT22;20127;48.962;8.342;2023-04-16T04:04:12;9.30;99.90
33825;DHT22;20127;48.962;8.342;2023-04-16T04:07:15;9.40;99.90
33825;DHT22;20127;48.962;8.342;2023-04-16T04:10:18;9.40;99.90
33825;DHT22;20127;48.962;8.342;2023-04-16T04:13:19;9.40;99.90
33825;DHT22;20127;48.962;8.342;2023-04-16T04:16:21;9.40;99.90
33825;DHT22;20127;48.962;8.342;2023-04-16T04:19:23;9.40;99.90
33825;DHT22;20127;48.962;8.342;2023-04-16T04:22:24;9.40;99.90
33825;DHT22;20127;48.962;8.342;2023-04-16T04:25:27;9.40;99.90
33825;DHT22;20127;48.962;8.342;2023-04-16T04:28:30;9.40;99.90
33825;DHT22;20127;48.962;8.342;2023-04-16T04:31:31;9.40;99.90
33825;DHT22;20127;48.962;8.342;2023-04-16T04:34:33;9.40;99.90
33825;DHT22;20127;48.962;8.342;2023-04-16T04:37:35;9.40;99.90
33825;DHT22;20127;48.962;8.342;2023-04-16T04:40:38;9.40;99.90
33825;DHT22;20127;48.962;8.342;2023-04-16T04:43:39;9.40;99.90
33825;DHT22;20127;48.962;8.342;2023-04-16T04:46:41;9.40;99.90
33825;DHT22;20127;48.962;8.342;2023-04-16T04:49:43;9.50;99.90
33825;DHT22;20127;48.962;8.342;2023-04-16T04:52:44;9.40;99.90
33825;DHT22;20127;48.962;8.342;2023-04-16T04:55:47;9.40;99.90
33825;DHT22;20127;48.962;8.342;2023-04-16T04:58:49;9.40;99.90
33825;DHT22;20127;48.962;8.342;2023-04-16T05:01:51;9.40;99.90
33825;DHT22;20127;48.962;8.342;2023-04-16T05:04:53;9.40;99.90
33825;DHT22;20127;48.962;8.342;2023-04-16T05:07:54;9.40;99.90
33825;DHT22;20127;48.962;8.342;2023-04-16T05:10:57;9.40;99.90
33825;DHT22;20127;48.962;8.342;2023-04-16T05:13:59;9.40;99.90
33825;DHT22;20127;48.962;8.342;2023-04-16T05:17:01;9.40;99.90
33825;DHT22;20127;48.962;8.342;2023-04-16T05:20:03;9.40;99.90
33825;DHT22;20127;48.962;8.342;2023-04-16T05:23:05;9.50;99.90
33825;DHT22;20127;48.962;8.342;2023-04-16T05:26:08;9.50;99.90
33825;DHT22;20127;48.962;8.342;2023-04-16T05:29:10;9.40;99.90
33825;DHT22;20127;48.962;8.342;2023-04-16T05:32:11;9.40;99.90
33825;DHT22;20127;48.962;8.342;2023-04-16T05:35:13;9.50;99.90
33825;DHT22;20127;48.962;8.342;2023-04-16T05:38:15;9.40;99.90
33825;DHT22;20127;48.962;8.342;2023-04-16T05:41:18;9.40;99.90
33825;DHT22;20127;48.962;8.342;2023-04-16T05:44:19;9.40;99.90
33825;DHT22;20127;48.962;8.342;2023-04-16T05:47:21;9.40;99.90
33825;DHT22;20127;48.962;8.342;2023-04-16T05:50:23;9.40;99.90
33825;DHT22;20127;48.962;8.342;2023-04-16T05:53:24;9.40;99.90
33825;DHT22;20127;48.962;8.342;2023-04-16T05:56:27;9.40;99.90
33825;DHT22;20127;48.962;8.342;2023-04-16T05:59:29;9.40;99.90
33825;DHT22;20127;48.962;8.342;2023-04-16T06:02:31;9.40;99.90
33825;DHT22;20127;48.962;8.342;2023-04-16T06:05:33;9.50;99.90
33825;DHT22;20127;48.962;8.342;2023-04-16T06:08:34;9.50;99.90
33825;DHT22;20127;48.962;8.342;2023-04-16T06:11:37;9.50;99.90
33825;DHT22;20127;48.962;8.342;2023-04-16T06:14:39;9.50;99.90
33825;DHT22;20127;48.962;8.342;2023-04-16T06:17:41;9.50;99.90
33825;DHT22;20127;48.962;8.342;2023-04-16T06:20:42;9.50;99.90
33825;DHT22;20127;48.962;8.342;2023-04-16T06:23:44;9.50;99.90
33825;DHT22;20127;48.962;8.342;2023-04-16T06:26:47;9.60;99.90
33825;DHT22;20127;48.962;8.342;2023-04-16T06:29:49;9.60;99.90
33825;DHT22;20127;48.962;8.342;2023-04-16T06:32:51;9.60;99.90
33825;DHT22;20127;48.962;8.342;2023-04-16T06:35:53;9.70;99.90
33825;DHT22;20127;48.962;8.342;2023-04-16T06:38:54;9.70;99.90
33825;DHT22;20127;48.962;8.342;2023-04-16T06:41:57;9.70;99.90
33825;DHT22;20127;48.962;8.342;2023-04-16T06:44:59;9.80;99.90
33825;DHT22;20127;48.962;8.342;2023-04-16T06:48:01;9.80;99.90
33825;DHT22;20127;48.962;8.342;2023-04-16T06:51:04;9.80;99.90
33825;DHT22;20127;48.962;8.342;2023-04-16T06:54:06;9.90;99.90
33825;DHT22;20127;48.962;8.342;2023-04-16T06:57:09;9.90;99.90
33825;DHT22;20127;48.962;8.342;2023-04-16T07:00:11;9.90;99.90
33825;DHT22;20127;48.962;8.342;2023-04-16T07:03:13;10.00;99.90
33825;DHT22;20127;48.962;8.342;2023-04-16T07:06:15;10.00;99.90
33825;DHT22;20127;48.962;8.342;2023-04-16T07:09:16;10.00;99.90
33825;DHT22;20127;48.962;8.342;2023-04-16T07:12:20;10.00;99.90
33825;DHT22;20127;48.962;8.342;2023-04-16T07:15:21;10.00;99.90
33825;DHT22;20127;48.962;8.342;2023-04-16T07:18:23;10.10;99.90
33825;DHT22;20127;48.962;8.342;2023-04-16T07:21:25;10.20;99.90
33825;DHT22;20127;48.962;8.342;2023-04-16T07:24:27;10.20;99.90
33825;DHT22;20127;48.962;8.342;2023-04-16T07:27:30;10.30;99.90
33825;DHT22;20127;48.962;8.342;2023-04-16T07:30:31;10.40;99.90
33825;DHT22;20127;48.962;8.342;2023-04-16T07:33:35;10.40;99.90
33825;DHT22;20127;48.962;8.342;2023-04-16T07:36:36;10.40;99.90
33825;DHT22;20127;48.962;8.342;2023-04-16T07:39:38;10.50;99.90
33825;DHT22;20127;48.962;8.342;2023-04-16T07:42:42;10.40;99.90
33825;DHT22;20127;48.962;8.342;2023-04-16T07:45:43;10.40;99.90
33825;DHT22;20127;48.962;8.342;2023-04-16T07:48:45;10.30;99.90
33825;DHT22;20127;48.962;8.342;2023-04-16T07:51:47;10.30;99.90
33825;DHT22;20127;48.962;8.342;2023-04-16T07:54:48;10.30;99.90
33825;DHT22;20127;48.962;8.342;2023-04-16T07:57:52;10.30;99.90
33825;DHT22;20127;48.962;8.342;2023-04-16T08:00:54;10.30;99.90
33825;DHT22;20127;48.962;8.342;2023-04-16T08:03:56;10.40;99.90
33825;DHT22;20127;48.962;8.342;2023-04-16T08:06:57;10.40;99.90
33825;DHT22;20127;48.962;8.342;2023-04-16T08:09:59;10.40;99.90
33825;DHT22;20127;48.962;8.342;2023-04-16T08:13:03;10.40;99.90
33825;DHT22;20127;48.962;8.342;2023-04-16T08:16:05;10.40;99.90
33825;DHT22;20127;48.962;8.342;2023-04-16T08:19:07;10.40;99.90
33825;DHT22;20127;48.962;8.342;2023-04-16T08:22:09;10.50;99.90
33825;DHT22;20127;48.962;8.342;2023-04-16T08:25:10;10.50;99.90
33825;DHT22;20127;48.962;8.342;2023-04-16T08:28:13;10.60;99.90
33825;DHT22;20127;48.962;8.342;2023-04-16T08:31:15;10.70;99.90
33825;DHT22;20127;48.962;8.342;2023-04-16T08:34:17;10.80;99.90
33825;DHT22;20127;48.962;8.342;2023-04-16T08:37:18;10.80;99.90
33825;DHT22;20127;48.962;8.342;2023-04-16T08:40:20;10.80;99.90
33825;DHT22;20127;48.962;8.342;2023-04-16T08:43:24;10.90;99.90
33825;DHT22;20127;48.962;8.342;2023-04-16T08:46:27;10.90;99.90
33825;DHT22;20127;48.962;8.342;2023-04-16T08:49:31;10.90;99.90
33825;DHT22;20127;48.962;8.342;2023-04-16T08:52:37;11.00;99.90
33825;DHT22;20127;48.962;8.342;2023-04-16T08:55:46;11.00;99.90
33825;DHT22;20127;48.962;8.342;2023-04-16T08:58:50;11.10;99.90
33825;DHT22;20127;48.962;8.342;2023-04-16T09:01:56;11.20;99.90
33825;DHT22;20127;48.962;8.342;2023-04-16T09:04:58;11.30;99.90
33825;DHT22;20127;48.962;8.342;2023-04-16T09:08:00;11.40;99.90
33825;DHT22;20127;48.962;8.342;2023-04-16T09:11:02;11.40;99.90
33825;DHT22;20127;48.962;8.342;2023-04-16T09:14:08;11.50;99.90
33825;DHT22;20127;48.962;8.342;2023-04-16T09:17:11;11.50;99.90
33825;DHT22;20127;48.962;8.342;2023-04-16T09:20:14;11.50;99.90
33825;DHT22;20127;48.962;8.342;2023-04-16T09:23:16;11.50;99.90
33825;DHT22;20127;48.962;8.342;2023-04-16T09:26:19;11.40;99.90
33825;DHT22;20127;48.962;8.342;2023-04-16T09:29:34;11.40;99.90
33825;DHT22;20127;48.962;8.342;2023-04-16T09:32:36;11.40;99.90
33825;DHT22;20127;48.962;8.342;2023-04-16T09:35:44;11.40;99.90
33825;DHT22;20127;48.962;8.342;2023-04-16T09:38:47;11.40;99.90
33825;DHT22;20127;48.962;8.342;2023-04-16T09:41:51;11.40;99.90
33825;DHT22;20127;48.962;8.342;2023-04-16T09:44:57;11.40;99.90
33825;DHT22;20127;48.962;8.342;2023-04-16T09:48:02;11.30;99.90
33825;DHT22;20127;48.962;8.342;2023-04-16T09:51:05;11.30;99.90
33825;DHT22;20127;48.962;8.342;2023-04-16T09:54:07;11.30;99.90
33825;DHT22;20127;48.962;8.342;2023-04-16T09:57:09;11.30;99.90
33825;DHT22;20127;48.962;8.342;2023-04-16T10:00:17;11.30;99.90
33825;DHT22;20127;48.962;8.342;2023-04-16T10:03:28;11.40;99.90
33825;DHT22;20127;48.962;8.342;2023-04-16T10:06:29;11.40;99.90
33825;DHT22;20127;48.962;8.342;2023-04-16T10:09:32;11.40;99.90
33825;DHT22;20127;48.962;8.342;2023-04-16T10:12:37;11.40;99.90
33825;DHT22;20127;48.962;8.342;2023-04-16T10:15:40;11.40;99.90
33825;DHT22;20127;48.962;8.342;2023-04-16T10:18:44;11.40;99.90
33825;DHT22;20127;48.962;8.342;2023-04-16T10:21:46;11.50;99.90
33825;DHT22;20127;48.962;8.342;2023-04-16T10:24:49;11.50;99.90
33825;DHT22;20127;48.962;8.342;2023-04-16T10:27:51;11.60;99.90
33825;DHT22;20127;48.962;8.342;2023-04-16T10:30:56;11.60;99.90
33825;DHT22;20127;48.962;8.342;2023-04-16T10:33:58;11.60;99.90
33825;DHT22;20127;48.962;8.342;2023-04-16T10:37:00;11.70;99.90
33825;DHT22;20127;48.962;8.342;2023-04-16T10:40:21;11.70;99.90
33825;DHT22;20127;48.962;8.342;2023-04-16T10:43:24;11.80;99.90
33825;DHT22;20127;48.962;8.342;2023-04-16T10:46:31;11.80;99.90
33825;DHT22;20127;48.962;8.342;2023-04-16T10:49:34;11.80;99.90
33825;DHT22;20127;48.962;8.342;2023-04-16T10:52:36;11.90;99.90
33825;DHT22;20127;48.962;8.342;2023-04-16T10:55:38;11.90;99.90
33825;DHT22;20127;48.962;8.342;2023-04-16T10:58:39;11.90;99.90
33825;DHT22;20127;48.962;8.342;2023-04-16T11:01:44;12.00;99.90
33825;DHT22;20127;48.962;8.342;2023-04-16T11:04:47;12.10;99.90
33825;DHT22;20127;48.962;8.342;2023-04-16T11:07:49;12.10;99.90
33825;DHT22;20127;48.962;8.342;2023-04-16T11:10:50;12.10;99.90
33825;DHT22;20127;48.962;8.342;2023-04-16T11:13:54;12.10;99.90
33825;DHT22;20127;48.962;8.342;2023-04-16T11:17:01;12.30;99.90
33825;DHT22;20127;48.962;8.342;2023-04-16T11:20:05;12.30;99.90
33825;DHT22;20127;48.962;8.342;2023-04-16T11:23:09;12.30;99.90
33825;DHT22;20127;48.962;8.342;2023-04-16T11:26:20;12.20;99.90
33825;DHT22;20127;48.962;8.342;2023-04-16T11:29:22;12.10;99.90
33825;DHT22;20127;48.962;8.342;2023-04-16T11:32:25;12.00;99.90
33825;DHT22;20127;48.962;8.342;2023-04-16T11:35:26;12.00;99.90
33825;DHT22;20127;48.962;8.342;2023-04-16T11:38:37;12.00;99.90
33825;DHT22;20127;48.962;8.342;2023-04-16T11:41:43;12.10;99.90
33825;DHT22;20127;48.962;8.342;2023-04-16T11:44:45;12.20;99.90
33825;DHT22;20127;48.962;8.342;2023-04-16T11:47:49;12.30;99.90
33825;DHT22;20127;48.962;8.342;2023-04-16T11:50:55;12.30;99.90
33825;DHT22;20127;48.962;8.342;2023-04-16T11:53:57;12.10;99.90
33825;DHT22;20127;48.962;8.342;2023-04-16T11:56:59;12.10;99.90
33825;DHT22;20127;48.962;8.342;2023-04-16T12:00:00;12.00;99.90
33825;DHT22;20127;48.962;8.342;2023-04-16T12:03:07;12.00;99.90
33825;DHT22;20127;48.962;8.342;2023-04-16T12:06:09;12.00;99.90
33825;DHT22;20127;48.962;8.342;2023-04-16T12:09:24;12.00;99.90
33825;DHT22;20127;48.962;8.342;2023-04-16T12:12:27;12.00;99.90
33825;DHT22;20127;48.962;8.342;2023-04-16T12:15:42;12.10;99.90
33825;DHT22;20127;48.962;8.342;2023-04-16T12:18:59;11.90;99.90
33825;DHT22;20127;48.962;8.342;2023-04-16T12:22:03;11.90;99.90
33825;DHT22;20127;48.962;8.342;2023-04-16T12:25:06;11.90;99.90
33825;DHT22;20127;48.962;8.342;2023-04-16T12:28:08;12.00;99.90
33825;DHT22;20127;48.962;8.342;2023-04-16T12:31:10;12.10;99.90
33825;DHT22;20127;48.962;8.342;2023-04-16T12:34:13;12.10;99.90
33825;DHT22;20127;48.962;8.342;2023-04-16T12:37:15;12.40;99.90
33825;DHT22;20127;48.962;8.342;2023-04-16T12:40:17;12.50;99.90
33825;DHT22;20127;48.962;8.342;2023-04-16T12:43:19;12.40;99.90
33825;DHT22;20127;48.962;8.342;2023-04-16T12:46:21;12.50;99.90
33825;DHT22;20127;48.962;8.342;2023-04-16T12:49:24;12.40;99.90
33825;DHT22;20127;48.962;8.342;2023-04-16T12:52:26;12.30;99.90
33825;DHT22;20127;48.962;8.342;2023-04-16T12:55:27;12.30;99.90
33825;DHT22;20127;48.962;8.342;2023-04-16T12:58:29;12.10;99.90
33825;DHT22;20127;48.962;8.342;2023-04-16T13:01:31;12.10;99.90
33825;DHT22;20127;48.962;8.342;2023-04-16T13:04:36;12.10;99.90
33825;DHT22;20127;48.962;8.342;2023-04-16T13:07:38;12.00;99.90
33825;DHT22;20127;48.962;8.342;2023-04-16T13:10:40;12.00;99.90
33825;DHT22;20127;48.962;8.342;2023-04-16T13:13:42;11.90;99.90
33825;DHT22;20127;48.962;8.342;2023-04-16T13:16:44;11.70;99.90
33825;DHT22;20127;48.962;8.342;2023-04-16T13:19:47;11.60;99.90
33825;DHT22;20127;48.962;8.342;2023-04-16T13:22:48;11.60;99.90
33825;DHT22;20127;48.962;8.342;2023-04-16T13:25:50;11.60;99.90
33825;DHT22;20127;48.962;8.342;2023-04-16T13:28:52;11.60;99.90
33825;DHT22;20127;48.962;8.342;2023-04-16T13:31:54;11.50;99.90
33825;DHT22;20127;48.962;8.342;2023-04-16T13:34:57;11.50;99.90
33825;DHT22;20127;48.962;8.342;2023-04-16T13:37:59;11.50;99.90
33825;DHT22;20127;48.962;8.342;2023-04-16T13:41:06;11.50;99.90
33825;DHT22;20127;48.962;8.342;2023-04-16T13:44:07;11.50;99.90
33825;DHT22;20127;48.962;8.342;2023-04-16T13:47:09;11.50;99.90
33825;DHT22;20127;48.962;8.342;2023-04-16T13:50:12;11.50;99.90
33825;DHT22;20127;48.962;8.342;2023-04-16T13:53:14;11.50;99.90
33825;DHT22;20127;48.962;8.342;2023-04-16T13:56:16;11.50;99.90
33825;DHT22;20127;48.962;8.342;2023-04-16T13:59:18;11.50;99.90
33825;DHT22;20127;48.962;8.342;2023-04-16T14:02:20;11.50;99.90
33825;DHT22;20127;48.962;8.342;2023-04-16T14:05:23;11.50;99.90
33825;DHT22;20127;48.962;8.342;2023-04-16T14:08:25;11.50;99.90
33825;DHT22;20127;48.962;8.342;2023-04-16T14:11:27;11.50;99.90
33825;DHT22;20127;48.962;8.342;2023-04-16T14:14:29;11.50;99.90
33825;DHT22;20127;48.962;8.342;2023-04-16T14:17:31;11.50;99.90
33825;DHT22;20127;48.962;8.342;2023-04-16T14:20:34;11.50;99.90
33825;DHT22;20127;48.962;8.342;2023-04-16T14:23:36;11.40;99.90
33825;DHT22;20127;48.962;8.342;2023-04-16T14:26:37;11.40;99.90
33825;DHT22;20127;48.962;8.342;2023-04-16T14:29:39;11.40;99.90
33825;DHT22;20127;48.962;8.342;2023-04-16T14:32:42;11.30;99.90
33825;DHT22;20127;48.962;8.342;2023-04-16T14:35:45;11.30;99.90
33825;DHT22;20127;48.962;8.342;2023-04-16T14:38:48;11.30;99.90
33825;DHT22;20127;48.962;8.342;2023-04-16T14:41:50;11.30;99.90
33825;DHT22;20127;48.962;8.342;2023-04-16T14:44:52;11.30;99.90
33825;DHT22;20127;48.962;8.342;2023-04-16T14:47:54;11.30;99.90
33825;DHT22;20127;48.962;8.342;2023-04-16T14:50:57;11.30;99.90
33825;DHT22;20127;48.962;8.342;2023-04-16T14:54:00;11.30;99.90
33825;DHT22;20127;48.962;8.342;2023-04-16T14:57:02;11.30;99.90
33825;DHT22;20127;48.962;8.342;2023-04-16T15:00:08;11.30;99.90
33825;DHT22;20127;48.962;8.342;2023-04-16T15:03:11;11.30;99.90
33825;DHT22;20127;48.962;8.342;2023-04-16T15:06:15;11.30;99.90
33825;DHT22;20127;48.962;8.342;2023-04-16T15:09:17;11.20;99.90
33825;DHT22;20127;48.962;8.342;2023-04-16T15:12:21;11.20;99.90
33825;DHT22;20127;48.962;8.342;2023-04-16T15:15:23;11.20;99.90
33825;DHT22;20127;48.962;8.342;2023-04-16T15:18:25;11.30;99.90
33825;DHT22;20127;48.962;8.342;2023-04-16T15:21:30;11.30;99.90
33825;DHT22;20127;48.962;8.342;2023-04-16T15:24:32;11.30;99.90
33825;DHT22;20127;48.962;8.342;2023-04-16T15:27:34;11.30;99.90
33825;DHT22;20127;48.962;8.342;2023-04-16T15:30:39;11.30;99.90
33825;DHT22;20127;48.962;8.342;2023-04-16T15:33:43;11.30;99.90
33825;DHT22;20127;48.962;8.342;2023-04-16T15:36:46;11.30;99.90
33825;DHT22;20127;48.962;8.342;2023-04-16T15:39:48;11.30;99.90
33825;DHT22;20127;48.962;8.342;2023-04-16T15:42:50;11.20;99.90
33825;DHT22;20127;48.962;8.342;2023-04-16T15:45:52;11.20;99.90
33825;DHT22;20127;48.962;8.342;2023-04-16T15:48:53;11.10;99.90
33825;DHT22;20127;48.962;8.342;2023-04-16T15:51:57;11.10;99.90
33825;DHT22;20127;48.962;8.342;2023-04-16T15:54:59;11.10;99.90
33825;DHT22;20127;48.962;8.342;2023-04-16T15:58:01;11.10;99.90
33825;DHT22;20127;48.962;8.342;2023-04-16T16:01:03;11.10;99.90
33825;DHT22;20127;48.962;8.342;2023-04-16T16:04:05;11.10;99.90
33825;DHT22;20127;48.962;8.342;2023-04-16T16:07:08;11.10;99.90
33825;DHT22;20127;48.962;8.342;2023-04-16T16:10:11;11.10;99.90
33825;DHT22;20127;48.962;8.342;2023-04-16T16:13:13;11.10;99.90
33825;DHT22;20127;48.962;8.342;2023-04-16T16:16:17;11.20;99.90
33825;DHT22;20127;48.962;8.342;2023-04-16T16:19:19;11.30;99.90
33825;DHT22;20127;48.962;8.342;2023-04-16T16:22:22;11.40;99.90
33825;DHT22;20127;48.962;8.342;2023-04-16T16:25:24;11.40;99.90
33825;DHT22;20127;48.962;8.342;2023-04-16T16:28:26;11.60;99.90
33825;DHT22;20127;48.962;8.342;2023-04-16T16:31:28;11.80;99.90
33825;DHT22;20127;48.962;8.342;2023-04-16T16:34:30;11.90;99.90
33825;DHT22;20127;48.962;8.342;2023-04-16T16:37:33;12.00;99.90
33825;DHT22;20127;48.962;8.342;2023-04-16T16:40:34;12.10;99.90
33825;DHT22;20127;48.962;8.342;2023-04-16T16:43:36;12.10;99.90
33825;DHT22;20127;48.962;8.342;2023-04-16T16:46:38;11.90;99.90
33825;DHT22;20127;48.962;8.342;2023-04-16T16:49:40;11.80;99.90
33825;DHT22;20127;48.962;8.342;2023-04-16T16:52:43;11.60;99.90
33825;DHT22;20127;48.962;8.342;2023-04-16T16:55:45;11.50;99.90
33825;DHT22;20127;48.962;8.342;2023-04-16T16:58:47;11.40;99.90
33825;DHT22;20127;48.962;8.342;2023-04-16T17:01:48;11.30;99.90
33825;DHT22;20127;48.962;8.342;2023-04-16T17:04:50;11.20;99.90
33825;DHT22;20127;48.962;8.342;2023-04-16T17:07:53;11.10;99.90
33825;DHT22;20127;48.962;8.342;2023-04-16T17:10:55;11.10;99.90
33825;DHT22;20127;48.962;8.342;2023-04-16T17:13:57;11.00;99.90
33825;DHT22;20127;48.962;8.342;2023-04-16T17:16:58;11.00;99.90
33825;DHT22;20127;48.962;8.342;2023-04-16T17:20:00;11.00;99.90
33825;DHT22;20127;48.962;8.342;2023-04-16T17:23:08;10.90;99.90
33825;DHT22;20127;48.962;8.342;2023-04-16T17:26:10;10.80;99.90
33825;DHT22;20127;48.962;8.342;2023-04-16T17:29:12;10.80;99.90
33825;DHT22;20127;48.962;8.342;2023-04-16T17:32:13;10.80;99.90
33825;DHT22;20127;48.962;8.342;2023-04-16T17:35:15;10.70;99.90
33825;DHT22;20127;48.962;8.342;2023-04-16T17:38:18;10.70;99.90
33825;DHT22;20127;48.962;8.342;2023-04-16T17:41:20;10.60;99.90
33825;DHT22;20127;48.962;8.342;2023-04-16T17:44:22;10.60;99.90
33825;DHT22;20127;48.962;8.342;2023-04-16T17:47:25;10.60;99.90
33825;DHT22;20127;48.962;8.342;2023-04-16T17:50:26;10.50;99.90
33825;DHT22;20127;48.962;8.342;2023-04-16T17:53:29;10.50;99.90
33825;DHT22;20127;48.962;8.342;2023-04-16T17:56:31;10.50;99.90
33825;DHT22;20127;48.962;8.342;2023-04-16T17:59:34;10.50;99.90
33825;DHT22;20127;48.962;8.342;2023-04-16T18:02:35;10.50;99.90
33825;DHT22;20127;48.962;8.342;2023-04-16T18:05:38;10.40;99.90
33825;DHT22;20127;48.962;8.342;2023-04-16T18:08:42;10.30;99.90
33825;DHT22;20127;48.962;8.342;2023-04-16T18:11:43;10.30;99.90
33825;DHT22;20127;48.962;8.342;2023-04-16T18:14:45;10.30;99.90
33825;DHT22;20127;48.962;8.342;2023-04-16T18:17:47;10.30;99.90
33825;DHT22;20127;48.962;8.342;2023-04-16T18:20:48;10.30;99.90
33825;DHT22;20127;48.962;8.342;2023-04-16T18:23:51;10.30;99.90
33825;DHT22;20127;48.962;8.342;2023-04-16T18:26:53;10.30;99.90
33825;DHT22;20127;48.962;8.342;2023-04-16T18:29:56;10.30;99.90
33825;DHT22;20127;48.962;8.342;2023-04-16T18:32:57;10.30;99.90
33825;DHT22;20127;48.962;8.342;2023-04-16T18:35:59;10.20;99.90
33825;DHT22;20127;48.962;8.342;2023-04-16T18:39:03;10.30;99.90
33825;DHT22;20127;48.962;8.342;2023-04-16T18:42:05;10.20;99.90
33825;DHT22;20127;48.962;8.342;2023-04-16T18:45:08;10.20;99.90
33825;DHT22;20127;48.962;8.342;2023-04-16T18:48:13;10.10;99.90
33825;DHT22;20127;48.962;8.342;2023-04-16T18:51:15;10.10;99.90
33825;DHT22;20127;48.962;8.342;2023-04-16T18:54:18;10.10;99.90
33825;DHT22;20127;48.962;8.342;2023-04-16T18:57:20;10.10;99.90
33825;DHT22;20127;48.962;8.342;2023-04-16T19:00:22;10.20;99.90
33825;DHT22;20127;48.962;8.342;2023-04-16T19:03:23;10.10;99.90
33825;DHT22;20127;48.962;8.342;2023-04-16T19:06:26;10.10;99.90
33825;DHT22;20127;48.962;8.342;2023-04-16T19:09:30;10.10;99.90
33825;DHT22;20127;48.962;8.342;2023-04-16T19:12:31;10.10;99.90
33825;DHT22;20127;48.962;8.342;2023-04-16T19:15:33;10.10;99.90
33825;DHT22;20127;48.962;8.342;2023-04-16T19:18:35;10.10;99.90
33825;DHT22;20127;48.962;8.342;2023-04-16T19:21:36;10.00;99.90